createdAt,value
2022-08-18T00:01:17.098Z,49.80
2022-08-18T00:06:22.010Z,49.80
2022-08-18T00:11:25.144Z,49.90
2022-08-18T00:16:29.601Z,49.90
2022-08-18T00:21:33.629Z,49.90
2022-08-18T00:26:37.176Z,49.90
2022-08-18T00:31:41.784Z,49.90
2022-08-18T00:36:44.855Z,49.90
2022-08-18T00:41:47.971Z,49.90
2022-08-18T00:46:52.520Z,49.90
2022-08-18T00:51:56.291Z,49.90
2022-08-18T00:57:01.481Z,49.90
2022-08-18T01:02:10.393Z,49.90
2022-08-18T01:07:20.500Z,49.90
2022-08-18T01:12:45.320Z,49.90
2022-08-18T01:18:06.476Z,49.80
2022-08-18T01:23:16.697Z,49.70
2022-08-18T01:28:20.728Z,49.80
2022-08-18T01:33:30.022Z,49.80
2022-08-18T01:38:34.875Z,49.80
2022-08-18T01:43:38.364Z,49.80
2022-08-18T01:48:42.536Z,49.70
2022-08-18T01:53:48.632Z,49.70
2022-08-18T01:58:51.678Z,49.70
2022-08-18T02:04:23.695Z,49.60
2022-08-18T02:09:25.172Z,49.50
2022-08-18T02:14:28.344Z,49.50
2022-08-18T02:19:35.744Z,49.50
2022-08-18T02:24:40.352Z,49.60
2022-08-18T02:29:43.506Z,49.60
2022-08-18T02:34:46.979Z,49.60
2022-08-18T02:39:51.595Z,49.70
2022-08-18T02:44:54.834Z,49.70
2022-08-18T02:49:57.971Z,49.70
2022-08-18T02:55:03.368Z,49.70
2022-08-18T03:00:07.260Z,49.70
2022-08-18T03:05:10.872Z,49.70
2022-08-18T03:10:32.892Z,49.70
2022-08-18T03:15:37.457Z,49.80
2022-08-18T03:20:41.286Z,49.80
2022-08-18T03:25:47.373Z,49.80
2022-08-18T03:30:50.488Z,49.90
2022-08-18T03:35:53.684Z,49.80
2022-08-18T03:40:58.194Z,49.80
2022-08-18T03:46:03.413Z,49.90
2022-08-18T03:51:08.305Z,50.00
2022-08-18T03:56:17.753Z,49.90
2022-08-18T04:01:26.276Z,49.90
2022-08-18T04:06:32.361Z,49.90
2022-08-18T04:11:43.287Z,49.90
2022-08-18T04:16:49.073Z,50.00
2022-08-18T04:21:53.899Z,49.90
2022-08-18T04:26:59.633Z,50.00
2022-08-18T04:32:04.929Z,49.90
2022-08-18T04:37:09.660Z,49.90
2022-08-18T04:42:14.203Z,50.00
2022-08-18T04:47:17.327Z,50.00
2022-08-18T04:52:41.627Z,50.00
2022-08-18T04:57:46.482Z,50.00
2022-08-18T05:02:49.566Z,50.20
2022-08-18T05:07:52.749Z,50.20
2022-08-18T05:12:57.556Z,50.30
2022-08-18T05:18:00.613Z,51.40
2022-08-18T05:23:05.013Z,52.10
2022-08-18T05:28:09.941Z,52.90
2022-08-18T05:33:13.020Z,53.60
2022-08-18T05:38:29.934Z,54.90
2022-08-18T05:43:35.100Z,55.40
2022-08-18T05:48:43.705Z,55.20
2022-08-18T05:54:05.183Z,55.30
2022-08-18T05:59:11.325Z,55.40
2022-08-18T06:04:20.485Z,55.60
2022-08-18T06:09:27.198Z,55.70
2022-08-18T06:14:31.911Z,55.90
2022-08-18T06:19:44.998Z,55.90
2022-08-18T06:24:56.399Z,55.50
2022-08-18T06:30:09.258Z,55.50
2022-08-18T06:35:19.250Z,55.60
2022-08-18T06:40:22.291Z,55.90
2022-08-18T06:45:36.443Z,55.80
2022-08-18T06:50:49.836Z,55.80
2022-08-18T06:55:53.040Z,55.80
2022-08-18T07:01:01.411Z,55.60
2022-08-18T07:06:07.334Z,55.70
2022-08-18T07:11:20.186Z,55.70
2022-08-18T07:16:56.689Z,55.70
2022-08-18T07:22:04.325Z,55.60
2022-08-18T07:27:11.361Z,55.80
2022-08-18T07:32:21.576Z,54.80
2022-08-18T07:37:29.266Z,54.90
2022-08-18T07:43:00.923Z,55.00
2022-08-18T07:48:36.553Z,55.10
2022-08-18T07:53:42.539Z,55.20
2022-08-18T07:59:02.759Z,55.20
2022-08-18T08:04:25.087Z,55.50
2022-08-18T08:09:37.810Z,55.30
2022-08-18T08:14:43.470Z,55.20
2022-08-18T08:20:03.604Z,55.10
2022-08-18T08:25:35.139Z,55.30
2022-08-18T08:30:44.141Z,55.00
2022-08-18T08:35:55.962Z,54.80
2022-08-18T08:41:03.460Z,54.40
2022-08-18T08:46:11.103Z,53.80
2022-08-18T08:51:30.455Z,53.30
2022-08-18T08:56:40.194Z,53.30
2022-08-18T09:01:49.763Z,53.30
2022-08-18T09:07:06.584Z,53.30
2022-08-18T09:12:21.738Z,53.30
2022-08-18T09:17:50.909Z,53.60
2022-08-18T09:22:59.755Z,53.70
2022-08-18T09:28:12.356Z,53.70
2022-08-18T09:33:25.039Z,53.70
2022-08-18T09:38:49.988Z,53.60
2022-08-18T09:44:11.952Z,53.70
2022-08-18T09:49:51.392Z,53.80
2022-08-18T09:55:02.986Z,53.80
2022-08-18T10:00:28.611Z,53.90
2022-08-18T10:05:33.251Z,53.90
2022-08-18T10:11:00.727Z,53.50
2022-08-18T10:16:22.465Z,53.60
2022-08-18T10:27:13.489Z,53.30
2022-08-18T10:38:15.123Z,53.40
2022-08-18T10:43:55.363Z,53.30
2022-08-18T10:49:06.956Z,53.20
2022-08-18T10:54:18.662Z,53.30
2022-08-18T10:59:47.765Z,53.40
2022-08-18T11:04:58.910Z,53.30
2022-08-18T11:15:55.726Z,53.20
2022-08-18T11:21:33.143Z,53.10
2022-08-18T11:26:39.162Z,53.20
2022-08-18T11:31:43.840Z,53.00
2022-08-18T11:37:00.271Z,52.90
2022-08-18T11:42:03.659Z,52.90
2022-08-18T11:47:16.495Z,52.60
2022-08-18T11:52:29.305Z,52.70
2022-08-18T11:57:52.553Z,52.50
2022-08-18T12:03:04.319Z,52.50
2022-08-18T12:08:50.518Z,52.40
2022-08-18T12:13:45.741Z,52.40
2022-08-18T12:18:50.451Z,52.20
2022-08-18T12:23:56.800Z,51.90
2022-08-18T12:29:01.372Z,51.60
2022-08-18T12:34:06.338Z,51.60
2022-08-18T12:39:16.668Z,51.60
2022-08-18T12:44:20.132Z,51.60
2022-08-18T12:49:26.931Z,51.60
2022-08-18T12:54:30.245Z,51.60
2022-08-18T12:59:37.680Z,51.70
2022-08-18T13:04:42.378Z,51.70
2022-08-18T13:09:53.812Z,51.70
2022-08-18T13:14:58.162Z,51.70
2022-08-18T13:20:05.712Z,51.70
2022-08-18T13:25:10.872Z,51.70
2022-08-18T13:30:29.888Z,51.70
2022-08-18T13:35:38.239Z,51.80
2022-08-18T13:40:48.407Z,51.90
2022-08-18T13:45:52.938Z,51.90
2022-08-18T13:51:02.086Z,52.00
2022-08-18T13:56:05.623Z,52.00
2022-08-18T14:01:42.507Z,52.10
2022-08-18T14:06:33.886Z,52.20
2022-08-18T14:11:41.783Z,52.30
2022-08-18T14:16:45.001Z,52.30
2022-08-18T14:22:11.352Z,52.40
2022-08-18T14:27:15.312Z,52.40
2022-08-18T14:32:29.454Z,52.50
2022-08-18T14:37:34.611Z,52.80
2022-08-18T14:42:41.734Z,52.80
2022-08-18T14:47:58.130Z,53.00
2022-08-18T14:53:02.531Z,53.00
2022-08-18T14:58:07.105Z,53.30
2022-08-18T15:03:10.827Z,54.20
2022-08-18T15:08:15.898Z,53.60
2022-08-18T15:13:18.949Z,53.80
2022-08-18T15:18:23.868Z,54.10
2022-08-18T15:23:48.483Z,54.80
2022-08-18T15:28:54.961Z,55.00
2022-08-18T15:34:04.179Z,55.50
2022-08-18T15:39:08.595Z,55.50
2022-08-18T15:44:14.378Z,56.70
2022-08-18T15:49:18.984Z,57.20
2022-08-18T15:54:26.291Z,57.90
2022-08-18T15:59:39.721Z,57.80
2022-08-18T16:04:44.986Z,58.30
2022-08-18T16:09:49.974Z,58.50
2022-08-18T16:14:53.182Z,58.60
2022-08-18T16:19:56.232Z,58.90
2022-08-18T16:25:02.450Z,59.10
2022-08-18T16:30:06.189Z,59.10
2022-08-18T16:35:11.142Z,59.10
2022-08-18T16:40:16.386Z,59.10
2022-08-18T16:45:19.503Z,59.40
2022-08-18T16:50:23.489Z,59.30
2022-08-18T16:55:27.977Z,59.20
2022-08-18T17:00:55.322Z,59.30
2022-08-18T17:06:03.650Z,59.30
2022-08-18T17:11:10.650Z,59.40
2022-08-18T17:16:14.659Z,59.40
2022-08-18T17:21:20.305Z,59.40
2022-08-18T17:26:38.351Z,59.40
2022-08-18T17:31:49.166Z,59.50
2022-08-18T17:36:56.526Z,59.70
2022-08-18T17:42:18.354Z,59.80
2022-08-18T17:47:29.032Z,60.00
2022-08-18T17:52:40.574Z,60.10
2022-08-18T17:57:56.518Z,60.40
2022-08-18T18:03:02.355Z,60.60
2022-08-18T18:08:06.611Z,60.70
2022-08-18T18:13:25.378Z,61.00
2022-08-18T18:18:36.674Z,61.60
2022-08-18T18:23:43.064Z,61.10
2022-08-18T18:28:47.597Z,61.50
2022-08-18T18:33:57.900Z,61.50
2022-08-18T18:39:11.122Z,61.90
2022-08-18T18:44:16.883Z,61.70
2022-08-18T18:49:26.699Z,61.70
2022-08-18T18:54:51.930Z,61.80
2022-08-18T19:00:10.428Z,62.10
2022-08-18T19:05:21.398Z,61.90
2022-08-18T19:10:28.484Z,61.70
2022-08-18T19:15:38.255Z,62.00
2022-08-18T19:21:44.795Z,62.20
2022-08-18T19:26:13.644Z,62.20
2022-08-18T19:31:23.719Z,62.20
2022-08-18T19:36:36.277Z,62.70
2022-08-18T19:41:47.060Z,62.90
2022-08-18T19:46:55.379Z,62.90
2022-08-18T19:52:02.683Z,62.90
2022-08-18T19:57:22.964Z,62.70
2022-08-18T20:02:38.707Z,62.50
2022-08-18T20:08:06.006Z,62.90
2022-08-18T20:13:33.669Z,62.70
2022-08-18T20:18:40.452Z,62.50
2022-08-18T20:24:02.281Z,62.60
2022-08-18T20:29:05.876Z,62.40
2022-08-18T20:34:14.882Z,62.50
2022-08-18T20:39:45.406Z,62.40
2022-08-18T20:44:58.678Z,62.60
2022-08-18T20:50:33.906Z,62.50
2022-08-18T20:55:47.035Z,62.60
2022-08-18T21:00:55.644Z,63.20
2022-08-18T21:06:00.735Z,62.80
2022-08-18T21:11:07.567Z,62.70
2022-08-18T21:16:13.217Z,62.70
2022-08-18T21:21:28.163Z,62.80
2022-08-18T21:26:33.228Z,62.80
2022-08-18T21:31:42.601Z,62.60
2022-08-18T21:36:54.569Z,62.50
2022-08-18T21:41:59.538Z,62.20
2022-08-18T21:47:07.749Z,61.70
2022-08-18T21:52:23.344Z,61.70
2022-08-18T21:57:28.096Z,61.60
2022-08-18T22:02:31.235Z,61.20
2022-08-18T22:07:35.933Z,61.10
2022-08-18T22:12:56.743Z,60.80
2022-08-18T22:18:02.817Z,60.60
2022-08-18T22:23:35.736Z,60.70
2022-08-18T22:28:50.931Z,60.50
2022-08-18T22:33:55.286Z,60.40
2022-08-18T22:39:01.200Z,60.40
2022-08-18T22:44:05.624Z,60.20
2022-08-18T22:49:08.735Z,60.20
2022-08-18T22:54:14.789Z,60.20
2022-08-18T22:59:19.698Z,60.10
2022-08-18T23:04:25.485Z,60.10
2022-08-18T23:09:32.232Z,60.10
2022-08-18T23:14:35.767Z,60.20
2022-08-18T23:19:40.696Z,60.20
2022-08-18T23:24:45.203Z,60.30
2022-08-18T23:29:48.745Z,60.20
2022-08-18T23:34:52.055Z,60.00
2022-08-18T23:39:56.515Z,60.10
2022-08-18T23:45:03.160Z,60.20
2022-08-18T23:50:07.755Z,60.20
2022-08-18T23:55:14.761Z,60.00
